Terminal Aerodrome Forecast
Issued by NWS

Home | Current Version | Previous Version | Graphics & Text | Print | Product List | Glossary On
Versions: 1 2 3 4 5 6 7 8 9 10 11 12 13 14 15 16 17 18
594
FTUS41 KCLE 291137
TAFFDY
TAF
KFDY 291137Z 2912/3012 02006KT P6SM OVC006
     FM291600 34006KT P6SM OVC015
     FM292000 03008KT P6SM OVC025
     FM300100 06006KT P6SM SCT035 BKN200=

USA.gov is the U.S. government's official web portal to all federal, state and local government web resources and services.